sensor_id;sensor_type;location;lat;lon;timestamp;pressure;altitude;pressure_sealevel;temperature;humidity
3132;BME280;62090;52.330;9.104;2023-04-06T00:00:11;101423.75;;;4.22;70.12
3132;BME280;62090;52.330;9.104;2023-04-06T00:02:41;101400.53;;;4.00;69.68
3132;BME280;62090;52.330;9.104;2023-04-06T00:05:11;101390.66;;;3.90;69.71
3132;BME280;62090;52.330;9.104;2023-04-06T00:07:41;101402.84;;;3.97;69.57
3132;BME280;62090;52.330;9.104;2023-04-06T00:10:11;101376.69;;;3.82;70.41
3132;BME280;62090;52.330;9.104;2023-04-06T00:12:41;101375.75;;;3.80;70.06
3132;BME280;62090;52.330;9.104;2023-04-06T00:15:14;101413.59;;;4.08;70.06
3132;BME280;62090;52.330;9.104;2023-04-06T00:17:43;101394.13;;;3.92;70.68
3132;BME280;62090;52.330;9.104;2023-04-06T00:20:14;101344.66;;;3.66;70.21
3132;BME280;62090;52.330;9.104;2023-04-06T00:22:44;101395.72;;;3.90;70.20
3132;BME280;62090;52.330;9.104;2023-04-06T00:25:14;101391.81;;;3.95;70.61
3132;BME280;62090;52.330;9.104;2023-04-06T00:27:44;101383.88;;;3.89;70.33
3132;BME280;62090;52.330;9.104;2023-04-06T00:30:17;101392.03;;;3.85;70.93
3132;BME280;62090;52.330;9.104;2023-04-06T00:32:47;101394.72;;;3.88;71.17
3132;BME280;62090;52.330;9.104;2023-04-06T00:35:17;101390.94;;;3.95;70.51
3132;BME280;62090;52.330;9.104;2023-04-06T00:37:47;101378.44;;;3.83;70.41
3132;BME280;62090;52.330;9.104;2023-04-06T00:40:17;101321.31;;;3.56;70.66
3132;BME280;62090;52.330;9.104;2023-04-06T00:42:48;101383.47;;;3.96;69.77
3132;BME280;62090;52.330;9.104;2023-04-06T00:45:20;101362.56;;;3.84;69.69
3132;BME280;62090;52.330;9.104;2023-04-06T00:47:50;101377.84;;;3.87;69.34
3132;BME280;62090;52.330;9.104;2023-04-06T00:50:20;101380.75;;;3.93;69.06
3132;BME280;62090;52.330;9.104;2023-04-06T00:52:50;101375.44;;;3.89;68.98
3132;BME280;62090;52.330;9.104;2023-04-06T00:55:25;101362.00;;;3.75;69.72
3132;BME280;62090;52.330;9.104;2023-04-06T00:57:58;101363.00;;;3.64;69.76
3132;BME280;62090;52.330;9.104;2023-04-06T01:00:37;101366.66;;;3.69;69.73
3132;BME280;62090;52.330;9.104;2023-04-06T01:03:09;101296.38;;;3.19;69.76
3132;BME280;62090;52.330;9.104;2023-04-06T01:05:42;101363.66;;;3.61;70.33
3132;BME280;62090;52.330;9.104;2023-04-06T01:08:19;101357.84;;;3.62;70.13
3132;BME280;62090;52.330;9.104;2023-04-06T01:10:54;101257.81;;;3.07;70.32
3132;BME280;62090;52.330;9.104;2023-04-06T01:13:28;101336.53;;;3.44;70.84
3132;BME280;62090;52.330;9.104;2023-04-06T01:16:04;101333.94;;;3.29;71.40
3132;BME280;62090;52.330;9.104;2023-04-06T01:18:45;101322.91;;;3.14;71.51
3132;BME280;62090;52.330;9.104;2023-04-06T01:21:19;101337.34;;;3.17;72.15
3132;BME280;62090;52.330;9.104;2023-04-06T01:24:10;101350.50;;;3.26;71.15
3132;BME280;62090;52.330;9.104;2023-04-06T01:26:57;101344.97;;;3.18;71.35
3132;BME280;62090;52.330;9.104;2023-04-06T01:29:36;101353.44;;;3.32;70.49
3132;BME280;62090;52.330;9.104;2023-04-06T01:32:09;101350.31;;;3.36;70.48
3132;BME280;62090;52.330;9.104;2023-04-06T01:34:46;101347.91;;;3.37;70.88
3132;BME280;62090;52.330;9.104;2023-04-06T01:37:16;101349.06;;;3.43;70.53
3132;BME280;62090;52.330;9.104;2023-04-06T01:39:50;101315.63;;;3.19;69.84
3132;BME280;62090;52.330;9.104;2023-04-06T01:42:34;101297.81;;;3.03;70.47
3132;BME280;62090;52.330;9.104;2023-04-06T01:45:05;101343.63;;;3.36;70.58
3132;BME280;62090;52.330;9.104;2023-04-06T01:47:36;101333.00;;;3.27;71.05
3132;BME280;62090;52.330;9.104;2023-04-06T01:50:07;101326.00;;;3.23;70.36
3132;BME280;62090;52.330;9.104;2023-04-06T01:52:42;101318.63;;;3.13;70.85
3132;BME280;62090;52.330;9.104;2023-04-06T01:55:15;101328.50;;;3.23;70.77
3132;BME280;62090;52.330;9.104;2023-04-06T01:58:05;101311.47;;;2.93;71.04
3132;BME280;62090;52.330;9.104;2023-04-06T02:00:37;101307.78;;;2.88;70.88
3132;BME280;62090;52.330;9.104;2023-04-06T02:03:08;101306.13;;;2.75;71.73
3132;BME280;62090;52.330;9.104;2023-04-06T02:05:38;101335.84;;;2.68;72.17
3132;BME280;62090;52.330;9.104;2023-04-06T02:08:21;101324.03;;;2.67;71.97
3132;BME280;62090;52.330;9.104;2023-04-06T02:10:53;101307.19;;;2.66;71.71
3132;BME280;62090;52.330;9.104;2023-04-06T02:13:30;101281.56;;;2.58;70.76
3132;BME280;62090;52.330;9.104;2023-04-06T02:16:00;101320.97;;;2.84;70.26
3132;BME280;62090;52.330;9.104;2023-04-06T02:18:30;101315.06;;;2.83;71.46
3132;BME280;62090;52.330;9.104;2023-04-06T02:21:00;101300.72;;;2.69;71.66
3132;BME280;62090;52.330;9.104;2023-04-06T02:23:30;101308.16;;;2.81;70.63
3132;BME280;62090;52.330;9.104;2023-04-06T02:26:03;101305.75;;;2.82;70.71
3132;BME280;62090;52.330;9.104;2023-04-06T02:28:33;101250.06;;;2.38;71.06
3132;BME280;62090;52.330;9.104;2023-04-06T02:31:03;101286.59;;;2.58;71.33
3132;BME280;62090;52.330;9.104;2023-04-06T02:33:33;101308.16;;;2.68;72.47
3132;BME280;62090;52.330;9.104;2023-04-06T02:36:05;101306.59;;;2.70;72.75
3132;BME280;62090;52.330;9.104;2023-04-06T02:38:34;101282.78;;;2.65;71.42
3132;BME280;62090;52.330;9.104;2023-04-06T02:41:07;101275.63;;;2.71;70.97
3132;BME280;62090;52.330;9.104;2023-04-06T02:43:37;101290.97;;;2.74;71.75
3132;BME280;62090;52.330;9.104;2023-04-06T02:46:15;101255.69;;;2.61;71.23
3132;BME280;62090;52.330;9.104;2023-04-06T02:48:46;101295.03;;;2.85;71.10
3132;BME280;62090;52.330;9.104;2023-04-06T02:51:15;101186.22;;;2.23;70.43
3132;BME280;62090;52.330;9.104;2023-04-06T02:53:51;101240.81;;;2.50;70.04
3132;BME280;62090;52.330;9.104;2023-04-06T02:56:23;101292.31;;;2.82;71.16
3132;BME280;62090;52.330;9.104;2023-04-06T02:58:53;101284.47;;;2.77;71.56
3132;BME280;62090;52.330;9.104;2023-04-06T03:01:27;101293.19;;;2.82;71.49
3132;BME280;62090;52.330;9.104;2023-04-06T03:04:01;101268.31;;;2.74;71.34
3132;BME280;62090;52.330;9.104;2023-04-06T03:06:31;101271.13;;;2.78;70.93
3132;BME280;62090;52.330;9.104;2023-04-06T03:09:10;101190.75;;;2.29;71.06
3132;BME280;62090;52.330;9.104;2023-04-06T03:11:45;101258.31;;;2.62;71.18
3132;BME280;62090;52.330;9.104;2023-04-06T03:14:15;101219.13;;;2.39;71.57
3132;BME280;62090;52.330;9.104;2023-04-06T03:16:49;101273.53;;;2.77;71.50
3132;BME280;62090;52.330;9.104;2023-04-06T03:19:21;101248.63;;;2.55;71.44
3132;BME280;62090;52.330;9.104;2023-04-06T03:21:53;101279.44;;;2.77;71.26
3132;BME280;62090;52.330;9.104;2023-04-06T03:24:23;101265.97;;;2.64;71.75
3132;BME280;62090;52.330;9.104;2023-04-06T03:26:56;101260.72;;;2.61;71.11
3132;BME280;62090;52.330;9.104;2023-04-06T03:29:26;101286.19;;;2.65;71.76
3132;BME280;62090;52.330;9.104;2023-04-06T03:31:57;101277.88;;;2.53;71.82
3132;BME280;62090;52.330;9.104;2023-04-06T03:34:33;101268.47;;;2.50;71.80
3132;BME280;62090;52.330;9.104;2023-04-06T03:37:03;101273.31;;;2.61;71.20
3132;BME280;62090;52.330;9.104;2023-04-06T03:39:41;101284.47;;;2.64;71.77
3132;BME280;62090;52.330;9.104;2023-04-06T03:42:19;101243.69;;;2.43;71.54
3132;BME280;62090;52.330;9.104;2023-04-06T03:44:52;101247.53;;;2.38;71.40
3132;BME280;62090;52.330;9.104;2023-04-06T03:47:22;101287.06;;;2.66;71.58
3132;BME280;62090;52.330;9.104;2023-04-06T03:49:56;101271.50;;;2.58;71.53
3132;BME280;62090;52.330;9.104;2023-04-06T03:52:26;101214.28;;;2.29;70.93
3132;BME280;62090;52.330;9.104;2023-04-06T03:54:56;101264.19;;;2.49;71.57
3132;BME280;62090;52.330;9.104;2023-04-06T03:57:28;101263.19;;;2.59;70.90
3132;BME280;62090;52.330;9.104;2023-04-06T03:59:58;101283.88;;;2.68;71.02
3132;BME280;62090;52.330;9.104;2023-04-06T04:02:38;101277.69;;;2.63;71.38
3132;BME280;62090;52.330;9.104;2023-04-06T04:05:08;101208.34;;;2.16;70.97
3132;BME280;62090;52.330;9.104;2023-04-06T04:07:38;101279.91;;;2.59;71.85
3132;BME280;62090;52.330;9.104;2023-04-06T04:10:10;101272.16;;;2.55;71.41
3132;BME280;62090;52.330;9.104;2023-04-06T04:12:43;101247.41;;;2.48;70.50
3132;BME280;62090;52.330;9.104;2023-04-06T04:15:12;101259.34;;;2.39;71.27
3132;BME280;62090;52.330;9.104;2023-04-06T04:17:42;101271.28;;;2.42;71.50
3132;BME280;62090;52.330;9.104;2023-04-06T04:20:16;101257.00;;;2.29;71.76
3132;BME280;62090;52.330;9.104;2023-04-06T04:22:46;101255.19;;;2.27;71.14
3132;BME280;62090;52.330;9.104;2023-04-06T04:25:16;101264.09;;;2.35;70.87
3132;BME280;62090;52.330;9.104;2023-04-06T04:27:51;101295.06;;;2.60;70.67
3132;BME280;62090;52.330;9.104;2023-04-06T04:30:22;101294.41;;;2.63;70.87
3132;BME280;62090;52.330;9.104;2023-04-06T04:32:52;101294.41;;;2.63;70.25
3132;BME280;62090;52.330;9.104;2023-04-06T04:35:23;101265.53;;;2.44;70.04
3132;BME280;62090;52.330;9.104;2023-04-06T04:37:53;101265.00;;;2.48;69.90
3132;BME280;62090;52.330;9.104;2023-04-06T04:40:23;101256.47;;;2.46;69.91
3132;BME280;62090;52.330;9.104;2023-04-06T04:43:03;101271.50;;;2.58;70.26
3132;BME280;62090;52.330;9.104;2023-04-06T04:45:34;101307.47;;;2.57;71.06
3132;BME280;62090;52.330;9.104;2023-04-06T04:48:30;101286.19;;;2.52;70.93
3132;BME280;62090;52.330;9.104;2023-04-06T04:51:04;101289.00;;;2.57;70.52
3132;BME280;62090;52.330;9.104;2023-04-06T04:53:47;101285.31;;;2.51;70.72
3132;BME280;62090;52.330;9.104;2023-04-06T04:56:22;101295.28;;;2.63;70.18
3132;BME280;62090;52.330;9.104;2023-04-06T04:59:00;101243.78;;;2.32;70.02
3132;BME280;62090;52.330;9.104;2023-04-06T05:01:33;101248.34;;;2.37;70.23
3132;BME280;62090;52.330;9.104;2023-04-06T05:04:20;101264.78;;;2.45;70.86
3132;BME280;62090;52.330;9.104;2023-04-06T05:07:02;101260.56;;;2.58;70.40
3132;BME280;62090;52.330;9.104;2023-04-06T05:09:33;101265.00;;;2.62;70.36
3132;BME280;62090;52.330;9.104;2023-04-06T05:12:07;101284.56;;;2.79;70.36
3132;BME280;62090;52.330;9.104;2023-04-06T05:14:49;101276.53;;;2.84;70.27
3132;BME280;62090;52.330;9.104;2023-04-06T05:17:21;101208.97;;;2.38;70.41
3132;BME280;62090;52.330;9.104;2023-04-06T05:19:51;101284.28;;;2.87;70.00
3132;BME280;62090;52.330;9.104;2023-04-06T05:22:24;101278.28;;;2.85;70.42
3132;BME280;62090;52.330;9.104;2023-04-06T05:25:01;101265.22;;;2.78;70.35
3132;BME280;62090;52.330;9.104;2023-04-06T05:27:31;101281.28;;;2.93;70.15
3132;BME280;62090;52.330;9.104;2023-04-06T05:30:09;101275.28;;;3.04;70.23
3132;BME280;62090;52.330;9.104;2023-04-06T05:32:43;101264.16;;;3.01;70.28
3132;BME280;62090;52.330;9.104;2023-04-06T05:35:14;101270.81;;;3.13;69.96
3132;BME280;62090;52.330;9.104;2023-04-06T05:37:47;101261.81;;;3.17;70.06
3132;BME280;62090;52.330;9.104;2023-04-06T05:40:20;101264.41;;;3.31;70.02
3132;BME280;62090;52.330;9.104;2023-04-06T05:42:50;101271.91;;;3.58;69.35
3132;BME280;62090;52.330;9.104;2023-04-06T05:45:24;101265.25;;;3.73;70.13
3132;BME280;62090;52.330;9.104;2023-04-06T05:47:55;101248.38;;;3.72;68.66
3132;BME280;62090;52.330;9.104;2023-04-06T05:50:28;101266.94;;;3.87;67.47
3132;BME280;62090;52.330;9.104;2023-04-06T05:52:59;101272.19;;;3.90;67.07
3132;BME280;62090;52.330;9.104;2023-04-06T05:55:36;101255.09;;;3.86;67.45
3132;BME280;62090;52.330;9.104;2023-04-06T05:58:13;101261.34;;;4.06;67.09
3132;BME280;62090;52.330;9.104;2023-04-06T06:00:46;101264.41;;;4.30;66.55
3132;BME280;62090;52.330;9.104;2023-04-06T06:03:19;101265.22;;;4.43;68.11
3132;BME280;62090;52.330;9.104;2023-04-06T06:05:53;101266.84;;;4.57;66.61
3132;BME280;62090;52.330;9.104;2023-04-06T06:08:29;101252.41;;;4.55;65.99
3132;BME280;62090;52.330;9.104;2023-04-06T10:15:23;101187.66;;;12.62;46.10
3132;BME280;62090;52.330;9.104;2023-04-06T10:17:54;101143.50;;;12.33;45.68
3132;BME280;62090;52.330;9.104;2023-04-06T10:20:29;101173.22;;;12.65;43.30
3132;BME280;62090;52.330;9.104;2023-04-06T10:23:08;101106.78;;;12.30;43.50
3132;BME280;62090;52.330;9.104;2023-04-06T10:25:52;101120.84;;;12.48;43.31
3132;BME280;62090;52.330;9.104;2023-04-06T10:28:23;101108.00;;;12.45;42.82
3132;BME280;62090;52.330;9.104;2023-04-06T10:31:02;101128.84;;;12.62;43.50
3132;BME280;62090;52.330;9.104;2023-04-06T10:53:20;100993.09;;;12.50;44.55
3132;BME280;62090;52.330;9.104;2023-04-06T10:56:26;101022.56;;;12.75;43.35
3132;BME280;62090;52.330;9.104;2023-04-06T10:59:53;101185.59;;;13.66;41.89
3132;BME280;62090;52.330;9.104;2023-04-06T11:02:46;100927.84;;;12.25;43.02
3132;BME280;62090;52.330;9.104;2023-04-06T11:05:45;101079.13;;;13.30;41.78
3132;BME280;62090;52.330;9.104;2023-04-06T11:08:33;101157.06;;;13.46;41.92
3132;BME280;62090;52.330;9.104;2023-04-06T11:11:12;101157.75;;;13.37;43.18
3132;BME280;62090;52.330;9.104;2023-04-06T11:15:48;100868.50;;;11.98;43.04
3132;BME280;62090;52.330;9.104;2023-04-06T11:17:43;101083.66;;;13.45;42.06
3132;BME280;62090;52.330;9.104;2023-04-06T11:20:48;101151.09;;;13.93;40.56
3132;BME280;62090;52.330;9.104;2023-04-06T11:24:05;101154.75;;;14.08;41.62
3132;BME280;62090;52.330;9.104;2023-04-06T11:27:26;101087.78;;;13.86;43.65
3132;BME280;62090;52.330;9.104;2023-04-06T11:30:18;101143.81;;;14.16;42.98
3132;BME280;62090;52.330;9.104;2023-04-06T11:32:59;100933.41;;;12.93;43.14
3132;BME280;62090;52.330;9.104;2023-04-06T11:36:59;100967.81;;;13.10;39.82
3132;BME280;62090;52.330;9.104;2023-04-06T11:39:54;101114.66;;;14.10;43.11
3132;BME280;62090;52.330;9.104;2023-04-06T11:42:25;101103.56;;;14.12;40.68
3132;BME280;62090;52.330;9.104;2023-04-06T11:44:57;101125.31;;;14.35;40.58
3132;BME280;62090;52.330;9.104;2023-04-06T11:47:29;101115.84;;;14.33;41.77
3132;BME280;62090;52.330;9.104;2023-04-06T11:50:06;101096.91;;;14.22;43.11
3132;BME280;62090;52.330;9.104;2023-04-06T11:52:40;101117.69;;;14.38;42.53
3132;BME280;62090;52.330;9.104;2023-04-06T11:55:12;101116.81;;;14.36;43.17
3132;BME280;62090;52.330;9.104;2023-04-06T11:57:44;101106.59;;;14.40;41.89
3132;BME280;62090;52.330;9.104;2023-04-06T12:00:15;101095.53;;;14.42;42.26
3132;BME280;62090;52.330;9.104;2023-04-06T12:02:46;101107.53;;;14.46;43.20
3132;BME280;62090;52.330;9.104;2023-04-06T12:05:16;101065.22;;;14.17;43.29
3132;BME280;62090;52.330;9.104;2023-04-06T12:07:49;101099.75;;;14.40;43.25
3132;BME280;62090;52.330;9.104;2023-04-06T12:10:18;101082.47;;;14.27;42.57
3132;BME280;62090;52.330;9.104;2023-04-06T12:12:48;101104.75;;;14.34;43.22
3132;BME280;62090;52.330;9.104;2023-04-06T12:15:18;101107.09;;;14.19;43.55
3132;BME280;62090;52.330;9.104;2023-04-06T12:17:48;101039.09;;;13.85;43.40
3132;BME280;62090;52.330;9.104;2023-04-06T12:20:18;101082.25;;;14.15;42.68
3132;BME280;62090;52.330;9.104;2023-04-06T12:22:55;101038.31;;;13.89;42.63
3132;BME280;62090;52.330;9.104;2023-04-06T12:25:25;101090.38;;;14.41;43.01
3132;BME280;62090;52.330;9.104;2023-04-06T12:27:56;101077.66;;;14.50;44.41
3132;BME280;62090;52.330;9.104;2023-04-06T12:30:27;101097.56;;;14.66;43.55
3132;BME280;62090;52.330;9.104;2023-04-06T12:32:57;101101.34;;;14.94;42.47
3132;BME280;62090;52.330;9.104;2023-04-06T12:35:27;101093.28;;;15.36;40.76
3132;BME280;62090;52.330;9.104;2023-04-06T12:37:59;101071.59;;;15.09;42.86
3132;BME280;62090;52.330;9.104;2023-04-06T12:40:29;101099.94;;;15.20;42.68
3132;BME280;62090;52.330;9.104;2023-04-06T12:42:59;101092.44;;;15.40;43.26
3132;BME280;62090;52.330;9.104;2023-04-06T12:45:30;101066.88;;;15.49;42.10
3132;BME280;62090;52.330;9.104;2023-04-06T12:48:00;101101.25;;;15.60;42.17
3132;BME280;62090;52.330;9.104;2023-04-06T12:50:30;101071.03;;;15.38;41.23
3132;BME280;62090;52.330;9.104;2023-04-06T12:53:03;101040.63;;;14.94;40.89
3132;BME280;62090;52.330;9.104;2023-04-06T12:55:32;101082.78;;;15.17;40.86
3132;BME280;62090;52.330;9.104;2023-04-06T12:58:03;101081.31;;;15.39;41.02
3132;BME280;62090;52.330;9.104;2023-04-06T13:00:33;101017.69;;;15.09;41.70
3132;BME280;62090;52.330;9.104;2023-04-06T13:03:03;101038.34;;;15.23;39.80
3132;BME280;62090;52.330;9.104;2023-04-06T13:05:33;101073.72;;;15.50;40.86
3132;BME280;62090;52.330;9.104;2023-04-06T13:08:06;101050.44;;;15.32;40.40
3132;BME280;62090;52.330;9.104;2023-04-06T13:10:36;101065.09;;;15.45;41.14
3132;BME280;62090;52.330;9.104;2023-04-06T13:13:06;101027.50;;;15.48;41.37
3132;BME280;62090;52.330;9.104;2023-04-06T13:15:36;101060.09;;;15.54;38.42
3132;BME280;62090;52.330;9.104;2023-04-06T13:18:05;101029.84;;;15.29;38.75
3132;BME280;62090;52.330;9.104;2023-04-06T13:20:37;101053.03;;;15.36;39.45
3132;BME280;62090;52.330;9.104;2023-04-06T13:23:10;101057.34;;;15.39;39.63
3132;BME280;62090;52.330;9.104;2023-04-06T13:25:40;101043.47;;;15.23;38.51
3132;BME280;62090;52.330;9.104;2023-04-06T13:28:10;101045.34;;;15.36;38.24
3132;BME280;62090;52.330;9.104;2023-04-06T13:30:40;101040.28;;;15.42;38.84
3132;BME280;62090;52.330;9.104;2023-04-06T13:33:10;101048.19;;;15.65;39.89
3132;BME280;62090;52.330;9.104;2023-04-06T13:35:44;101012.91;;;15.47;37.78
3132;BME280;62090;52.330;9.104;2023-04-06T13:38:16;101032.69;;;15.53;37.47
3132;BME280;62090;52.330;9.104;2023-04-06T13:40:46;101042.19;;;15.63;38.84
3132;BME280;62090;52.330;9.104;2023-04-06T13:43:16;100999.19;;;15.45;37.34
3132;BME280;62090;52.330;9.104;2023-04-06T13:45:50;100997.75;;;15.70;39.09
3132;BME280;62090;52.330;9.104;2023-04-06T13:48:21;101033.13;;;16.11;37.28
3132;BME280;62090;52.330;9.104;2023-04-06T13:50:51;100961.69;;;15.66;37.61
3132;BME280;62090;52.330;9.104;2023-04-06T13:53:26;100986.56;;;15.68;38.66
3132;BME280;62090;52.330;9.104;2023-04-06T13:56:04;101033.00;;;15.92;38.42
3132;BME280;62090;52.330;9.104;2023-04-06T13:58:35;101003.78;;;15.81;40.17
3132;BME280;62090;52.330;9.104;2023-04-06T14:01:07;101014.22;;;15.99;38.52
3132;BME280;62090;52.330;9.104;2023-04-06T14:03:38;101014.22;;;15.99;38.52
3132;BME280;62090;52.330;9.104;2023-04-06T14:06:11;101015.13;;;16.09;39.23
3132;BME280;62090;52.330;9.104;2023-04-06T14:08:59;101024.63;;;16.21;38.64
3132;BME280;62090;52.330;9.104;2023-04-06T14:11:29;100985.03;;;15.90;39.61
3132;BME280;62090;52.330;9.104;2023-04-06T14:13:59;100991.88;;;15.89;39.51
3132;BME280;62090;52.330;9.104;2023-04-06T14:16:29;101021.84;;;15.92;38.56
3132;BME280;62090;52.330;9.104;2023-04-06T14:18:59;101012.47;;;15.95;39.33
3132;BME280;62090;52.330;9.104;2023-04-06T14:21:29;101017.66;;;16.04;38.23
3132;BME280;62090;52.330;9.104;2023-04-06T14:24:02;101008.28;;;16.11;38.87
3132;BME280;62090;52.330;9.104;2023-04-06T14:26:32;100965.16;;;15.68;39.13
3132;BME280;62090;52.330;9.104;2023-04-06T14:29:01;100996.94;;;15.80;39.81
3132;BME280;62090;52.330;9.104;2023-04-06T14:31:32;101015.06;;;16.00;38.87
3132;BME280;62090;52.330;9.104;2023-04-06T14:34:02;100989.28;;;15.88;38.52
3132;BME280;62090;52.330;9.104;2023-04-06T14:36:33;101003.84;;;15.87;38.92
3132;BME280;62090;52.330;9.104;2023-04-06T14:39:08;100947.97;;;15.60;38.93
3132;BME280;62090;52.330;9.104;2023-04-06T14:41:39;101001.41;;;16.10;37.57
3132;BME280;62090;52.330;9.104;2023-04-06T14:44:10;100900.03;;;15.62;38.06
3132;BME280;62090;52.330;9.104;2023-04-06T14:46:40;101008.38;;;16.29;38.82
3132;BME280;62090;52.330;9.104;2023-04-06T14:49:10;100997.97;;;16.08;39.46
3132;BME280;62090;52.330;9.104;2023-04-06T14:51:43;100949.72;;;15.66;39.69
3132;BME280;62090;52.330;9.104;2023-04-06T14:54:15;100962.56;;;15.66;40.52
3132;BME280;62090;52.330;9.104;2023-04-06T14:56:45;100998.78;;;15.96;39.96
3132;BME280;62090;52.330;9.104;2023-04-06T14:59:15;100989.38;;;16.03;39.42
3132;BME280;62090;52.330;9.104;2023-04-06T15:01:45;100943.91;;;15.91;38.03
3132;BME280;62090;52.330;9.104;2023-04-06T15:04:15;100990.28;;;16.10;39.03
3132;BME280;62090;52.330;9.104;2023-04-06T15:06:45;100989.31;;;15.92;40.41
3132;BME280;62090;52.330;9.104;2023-04-06T15:09:17;100977.16;;;15.69;40.21
3132;BME280;62090;52.330;9.104;2023-04-06T15:11:47;100988.28;;;15.65;39.98
3132;BME280;62090;52.330;9.104;2023-04-06T15:14:17;100978.81;;;15.65;39.57
3132;BME280;62090;52.330;9.104;2023-04-06T15:16:47;100984.03;;;15.73;40.35
3132;BME280;62090;52.330;9.104;2023-04-06T15:19:16;100923.78;;;15.36;40.45
3132;BME280;62090;52.330;9.104;2023-04-06T15:21:46;100961.66;;;15.56;39.46
3132;BME280;62090;52.330;9.104;2023-04-06T15:24:18;100979.72;;;15.67;40.31
3132;BME280;62090;52.330;9.104;2023-04-06T15:31:02;100987.53;;;15.84;39.62
3132;BME280;62090;52.330;9.104;2023-04-06T15:33:33;100965.19;;;15.69;40.08
3132;BME280;62090;52.330;9.104;2023-04-06T15:36:06;100960.88;;;15.67;40.67
3132;BME280;62090;52.330;9.104;2023-04-06T15:38:38;100954.84;;;15.61;40.60
3132;BME280;62090;52.330;9.104;2023-04-06T15:41:10;100927.44;;;15.62;41.03
3132;BME280;62090;52.330;9.104;2023-04-06T15:43:43;100963.56;;;15.83;40.66
3132;BME280;62090;52.330;9.104;2023-04-06T15:46:13;100873.25;;;15.32;40.21
3132;BME280;62090;52.330;9.104;2023-04-06T15:48:43;100948.03;;;15.71;40.37
3132;BME280;62090;52.330;9.104;2023-04-06T15:51:13;100854.47;;;15.36;39.30
3132;BME280;62090;52.330;9.104;2023-04-06T15:53:44;100894.06;;;15.67;39.21
3132;BME280;62090;52.330;9.104;2023-04-06T15:56:17;100973.22;;;16.30;39.32
3132;BME280;62090;52.330;9.104;2023-04-06T15:58:47;100834.06;;;15.57;39.21
3132;BME280;62090;52.330;9.104;2023-04-06T16:01:18;100980.13;;;16.40;38.21
3132;BME280;62090;52.330;9.104;2023-04-06T16:03:48;100918.28;;;16.07;37.89
3132;BME280;62090;52.330;9.104;2023-04-06T16:06:21;100822.06;;;15.53;39.42
3132;BME280;62090;52.330;9.104;2023-04-06T16:08:54;100891.66;;;15.97;39.00
3132;BME280;62090;52.330;9.104;2023-04-06T16:11:26;100955.31;;;16.46;37.94
3132;BME280;62090;52.330;9.104;2023-04-06T16:13:58;100850.56;;;16.01;37.97
3132;BME280;62090;52.330;9.104;2023-04-06T16:16:28;100808.50;;;15.75;37.71
3132;BME280;62090;52.330;9.104;2023-04-06T16:18:58;100874.59;;;16.11;36.37
3132;BME280;62090;52.330;9.104;2023-04-06T16:21:29;100889.03;;;15.86;37.91
3132;BME280;62090;52.330;9.104;2023-04-06T16:23:59;100810.69;;;15.19;38.21
3132;BME280;62090;52.330;9.104;2023-04-06T16:26:35;100992.81;;;16.03;39.64
3132;BME280;62090;52.330;9.104;2023-04-06T16:29:13;100842.25;;;15.01;41.71
3132;BME280;62090;52.330;9.104;2023-04-06T16:31:45;100993.44;;;15.72;41.45
3132;BME280;62090;52.330;9.104;2023-04-06T16:34:15;100966.81;;;15.59;41.31
3132;BME280;62090;52.330;9.104;2023-04-06T16:36:45;100974.38;;;15.46;41.47
3132;BME280;62090;52.330;9.104;2023-04-06T16:39:16;100805.66;;;14.33;42.28
3132;BME280;62090;52.330;9.104;2023-04-06T16:41:50;100926.09;;;15.04;42.45
3132;BME280;62090;52.330;9.104;2023-04-06T16:44:21;100890.81;;;14.80;42.71
3132;BME280;62090;52.330;9.104;2023-04-06T16:46:51;100879.59;;;14.72;42.86
3132;BME280;62090;52.330;9.104;2023-04-06T16:49:21;100865.78;;;14.58;43.03
3132;BME280;62090;52.330;9.104;2023-04-06T16:51:51;100823.53;;;14.28;43.31
3132;BME280;62090;52.330;9.104;2023-04-06T16:54:22;100998.19;;;15.30;43.65
3132;BME280;62090;52.330;9.104;2023-04-06T16:57:29;100984.44;;;15.21;43.33
3132;BME280;62090;52.330;9.104;2023-04-06T17:07:05;100819.91;;;14.05;43.92
3132;BME280;62090;52.330;9.104;2023-04-06T17:14:45;100818.03;;;13.90;43.70
3132;BME280;62090;52.330;9.104;2023-04-06T17:17:20;100677.06;;;13.12;43.75
3132;BME280;62090;52.330;9.104;2023-04-06T17:20:06;100872.19;;;14.22;43.72
3132;BME280;62090;52.330;9.104;2023-04-06T17:22:44;100969.22;;;14.58;43.83
3132;BME280;62090;52.330;9.104;2023-04-06T17:25:21;100847.72;;;13.78;43.23
3132;BME280;62090;52.330;9.104;2023-04-06T17:27:54;100910.66;;;14.24;43.76
3132;BME280;62090;52.330;9.104;2023-04-06T17:30:29;100976.91;;;14.57;43.28
3132;BME280;62090;52.330;9.104;2023-04-06T17:33:06;100755.59;;;13.18;43.45
3132;BME280;62090;52.330;9.104;2023-04-06T17:35:57;100997.16;;;14.38;44.28
3132;BME280;62090;52.330;9.104;2023-04-06T17:38:44;100946.44;;;14.15;43.86
3132;BME280;62090;52.330;9.104;2023-04-06T17:41:27;100666.72;;;12.46;43.39
3132;BME280;62090;52.330;9.104;2023-04-06T17:44:23;100833.59;;;13.42;43.72
3132;BME280;62090;52.330;9.104;2023-04-06T17:46:56;100789.72;;;13.18;43.12
3132;BME280;62090;52.330;9.104;2023-04-06T17:49:40;100936.56;;;13.82;42.96
3132;BME280;62090;52.330;9.104;2023-04-06T17:52:17;100852.34;;;13.41;42.31
3132;BME280;62090;52.330;9.104;2023-04-06T17:54:56;100766.22;;;12.88;42.61
3132;BME280;62090;52.330;9.104;2023-04-06T17:57:36;100678.38;;;12.30;42.68
3132;BME280;62090;52.330;9.104;2023-04-06T18:00:39;100668.72;;;12.12;42.87
3132;BME280;62090;52.330;9.104;2023-04-06T18:03:55;100803.50;;;12.75;43.42
3132;BME280;62090;52.330;9.104;2023-04-06T18:06:33;100852.44;;;12.96;43.67
3132;BME280;62090;52.330;9.104;2023-04-06T18:09:23;100717.31;;;12.17;43.79
3132;BME280;62090;52.330;9.104;2023-04-06T18:12:22;100873.63;;;12.88;43.79
3132;BME280;62090;52.330;9.104;2023-04-06T18:14:57;100721.19;;;11.94;44.05
3132;BME280;62090;52.330;9.104;2023-04-06T18:17:46;100777.16;;;12.30;43.88
3132;BME280;62090;52.330;9.104;2023-04-06T18:20:25;101012.09;;;13.54;44.08
3132;BME280;62090;52.330;9.104;2023-04-06T18:23:20;100965.56;;;13.25;44.41
3132;BME280;62090;52.330;9.104;2023-04-06T18:26:09;100785.34;;;12.12;44.08